Time;durP1;ratioP1;P1;durP2;ratioP2;P2;SDS_P1;SDS_P2;PMS_P1;PMS_P2;Temp;Humidity;BMP_temperature;BMP_pressure;BME280_temperature;BME280_humidity;BME280_pressure;Samples;Min_cycle;Max_cycle;Signal;HPM_P1;HPM_P2
2021/04/28 00:00:54;;;;;;;0.80;0.80;;;;;;;;;;4974621;28;20113;-56
2021/04/28 00:03:20;;;;;;;2.20;0.73;;;16.20;45.10;;;;;;4956983;28;20061;-56
2021/04/28 00:05:45;;;;;;;0.70;0.60;;;16.10;45.60;;;;;;4957206;28;20075;-56
2021/04/28 00:08:11;;;;;;;1.40;0.90;;;16.20;45.60;;;;;;4974435;28;20030;-56
2021/04/28 00:10:40;;;;;;;1.25;0.70;;;16.10;45.60;;;;;;4974452;28;20034;-54
2021/04/28 00:13:11;;;;;;;1.02;0.70;;;16.00;67.80;;;;;;4974301;28;20057;-54
2021/04/28 00:15:49;;;;;;;1.80;0.90;;;16.20;68.00;;;;;;4974695;28;20018;-56
2021/04/28 00:18:16;;;;;;;2.50;0.98;;;16.10;45.20;;;;;;4974350;28;20034;-55
2021/04/28 00:20:43;;;;;;;0.90;0.63;;;16.50;46.00;;;;;;4974537;28;20037;-53
2021/04/28 00:23:09;;;;;;;2.58;0.90;;;16.10;45.80;;;;;;4973789;28;20466;-56
2021/04/28 00:25:37;;;;;;;1.83;0.70;;;16.10;45.30;;;;;;4956626;28;20038;-54
2021/04/28 00:28:04;;;;;;;3.58;0.70;;;16.10;68.20;;;;;;4974235;28;20034;-55
2021/04/28 00:30:29;;;;;;;0.70;0.70;;;16.10;45.90;;;;;;4974459;28;20026;-55
2021/04/28 00:32:55;;;;;;;0.95;0.60;;;16.10;45.90;;;;;;4973856;28;20065;-53
2021/04/28 00:35:22;;;;;;;0.93;0.60;;;16.10;45.90;;;;;;4974126;28;20516;-56
2021/04/28 00:37:49;;;;;;;2.35;0.57;;;16.10;46.00;;;;;;4974057;28;20033;-53
2021/04/28 00:40:39;;;;;;;1.85;0.77;;;16.10;46.00;;;;;;4974053;28;20031;-56
2021/04/28 00:43:04;;;;;;;1.20;0.90;;;16.10;46.00;;;;;;4973729;28;20015;-58
2021/04/28 00:45:33;;;;;;;0.98;0.75;;;16.00;46.00;;;;;;4973882;28;20053;-55
2021/04/28 00:48:00;;;;;;;1.13;0.80;;;16.00;46.10;;;;;;4956520;28;20038;-56
2021/04/28 00:50:31;;;;;;;1.85;0.70;;;16.00;46.10;;;;;;4973894;28;20378;-56
2021/04/28 00:52:58;;;;;;;0.68;0.57;;;16.20;68.20;;;;;;4973655;28;20031;-56
2021/04/28 00:55:24;;;;;;;1.20;1.00;;;16.00;46.30;;;;;;4973855;28;20086;-54
2021/04/28 00:57:50;;;;;;;1.00;0.65;;;16.10;69.00;;;;;;4973798;28;20031;-55
2021/04/28 01:00:18;;;;;;;1.98;0.77;;;16.00;46.90;;;;;;4974299;28;20099;-55
2021/04/28 01:02:44;;;;;;;3.13;0.90;;;16.00;46.30;;;;;;4977552;28;20031;-56
2021/04/28 01:05:11;;;;;;;1.60;0.70;;;16.30;46.50;;;;;;4977636;28;20058;-56
2021/04/28 01:07:38;;;;;;;1.60;0.60;;;16.00;46.40;;;;;;4977526;28;20043;-55
2021/04/28 01:10:10;;;;;;;0.80;0.65;;;16.00;68.90;;;;;;4977952;28;20386;-56
2021/04/28 01:12:37;;;;;;;0.93;0.70;;;16.00;46.40;;;;;;4977639;28;20389;-56
2021/04/28 01:15:04;;;;;;;0.77;0.75;;;15.90;46.40;;;;;;4977839;28;20106;-56
2021/04/28 01:17:30;;;;;;;0.50;0.50;;;16.00;46.50;;;;;;4977573;28;20019;-56
2021/04/28 01:19:56;;;;;;;1.42;0.88;;;15.70;46.30;;;;;;4977780;28;20073;-56
2021/04/28 01:22:23;;;;;;;0.88;0.60;;;16.20;69.00;;;;;;4977427;28;20019;-56
2021/04/28 01:24:49;;;;;;;0.90;0.60;;;15.90;46.60;;;;;;4977391;28;20038;-56
2021/04/28 01:27:23;;;;;;;1.40;0.80;;;16.00;46.70;;;;;;4977604;28;20034;-56
2021/04/28 01:29:49;;;;;;;1.42;1.00;;;15.70;46.50;;;;;;4977443;28;20077;-56
2021/04/28 01:32:20;;;;;;;2.70;0.90;;;15.90;46.70;;;;;;4977570;28;20034;-56
2021/04/28 01:34:48;;;;;;;1.15;0.70;;;15.70;46.60;;;;;;4977283;28;20065;-56
2021/04/28 01:37:15;;;;;;;1.95;0.68;;;16.10;69.30;;;;;;4977495;28;20022;-56
2021/04/28 01:39:41;;;;;;;1.30;0.73;;;15.90;46.70;;;;;;4977256;28;20102;-56
2021/04/28 01:42:08;;;;;;;0.88;0.80;;;16.10;68.90;;;;;;4977159;28;20567;-56
2021/04/28 01:44:36;;;;;;;2.03;1.05;;;15.90;46.80;;;;;;4976942;28;20382;-56
2021/04/28 01:47:02;;;;;;;1.45;0.80;;;15.80;69.00;;;;;;4977297;28;20433;-55
2021/04/28 01:49:28;;;;;;;2.45;0.82;;;15.90;69.30;;;;;;4976982;28;20027;-56
2021/04/28 01:51:55;;;;;;;0.70;0.60;;;15.80;46.80;;;;;;4959572;28;20082;-56
2021/04/28 01:54:22;;;;;;;1.25;0.80;;;15.70;46.70;;;;;;4959553;28;20027;-56
2021/04/28 01:56:49;;;;;;;0.52;0.52;;;15.60;46.60;;;;;;4976865;28;20031;-55
2021/04/28 01:59:17;;;;;;;1.75;0.80;;;15.70;69.00;;;;;;4976990;28;20113;-57
2021/04/28 02:01:46;;;;;;;1.25;0.80;;;15.60;68.90;;;;;;4977048;28;20081;-56
2021/04/28 02:04:11;;;;;;;1.20;0.65;;;15.80;46.80;;;;;;4976569;28;20130;-57
2021/04/28 02:06:38;;;;;;;2.53;1.00;;;15.80;46.80;;;;;;4976849;28;20133;-55
2021/04/28 02:09:05;;;;;;;0.93;0.85;;;15.80;46.90;;;;;;4976569;28;20022;-56
2021/04/28 02:11:31;;;;;;;0.70;0.70;;;15.80;46.90;;;;;;4976540;28;20034;-57
2021/04/28 02:13:58;;;;;;;0.98;0.80;;;16.00;69.60;;;;;;4975642;28;20355;-56
2021/04/28 02:16:26;;;;;;;1.20;0.77;;;15.80;47.00;;;;;;4976369;28;20027;-55
2021/04/28 02:19:16;;;;;;;0.90;0.60;;;15.80;69.60;;;;;;4976489;28;20098;-56
2021/04/28 02:21:48;;;;;;;;;;;15.80;46.90;;;;;;4976797;28;20064;-55
2021/04/28 02:24:14;;;;;;;0.70;0.68;;;15.80;47.00;;;;;;4976600;28;19913;-55
2021/04/28 02:26:44;;;;;;;0.90;0.70;;;15.80;47.10;;;;;;4976222;28;20493;-56
2021/04/28 02:29:10;;;;;;;2.17;1.07;;;15.80;47.10;;;;;;4976532;28;20378;-56
2021/04/28 02:31:36;;;;;;;0.68;0.68;;;15.70;47.00;;;;;;4976241;28;20067;-57
2021/04/28 02:34:04;;;;;;;1.17;0.80;;;15.70;69.60;;;;;;4976162;28;20019;-54
2021/04/28 02:36:37;;;;;;;0.60;0.57;;;15.70;47.00;;;;;;4958696;28;20113;-55
2021/04/28 02:39:09;;;;;;;1.10;0.90;;;15.80;69.60;;;;;;4976227;28;20544;-56
2021/04/28 02:41:39;;;;;;;1.20;0.80;;;15.70;47.00;;;;;;4976152;28;20027;-56
2021/04/28 02:44:06;;;;;;;1.02;0.93;;;15.70;47.10;;;;;;4975748;28;20031;-56
2021/04/28 02:46:33;;;;;;;1.63;1.08;;;15.80;69.80;;;;;;4975800;28;20046;-56
2021/04/28 02:49:01;;;;;;;0.90;0.80;;;15.70;69.80;;;;;;4975893;28;20022;-56
2021/04/28 02:51:29;;;;;;;2.63;0.85;;;15.60;69.40;;;;;;4976070;28;20035;-55
2021/04/28 02:53:57;;;;;;;1.25;0.85;;;15.70;47.20;;;;;;4958491;28;20022;-56
2021/04/28 02:56:22;;;;;;;0.93;0.85;;;15.70;47.10;;;;;;4942586;28;20086;-56
2021/04/28 02:58:49;;;;;;;0.68;0.60;;;15.70;47.20;;;;;;4975542;28;20474;-55
2021/04/28 03:01:15;;;;;;;1.77;0.65;;;15.70;47.20;;;;;;4958199;28;20027;-55
2021/04/28 03:03:41;;;;;;;0.95;0.80;;;15.70;47.20;;;;;;4975464;28;20038;-55
2021/04/28 03:06:10;;;;;;;1.73;0.88;;;15.70;70.10;;;;;;4975531;28;20034;-56
2021/04/28 03:08:39;;;;;;;0.75;0.70;;;15.70;46.70;;;;;;4975608;28;20027;-56
2021/04/28 03:11:05;;;;;;;1.02;0.90;;;15.60;47.20;;;;;;4975463;28;20019;-56
2021/04/28 03:13:31;;;;;;;1.35;0.70;;;15.60;69.90;;;;;;4975506;28;20023;-56
2021/04/28 03:15:56;;;;;;;2.65;1.13;;;15.60;70.00;;;;;;4975392;28;20023;-56
2021/04/28 03:18:23;;;;;;;0.65;0.65;;;15.70;70.10;;;;;;4975413;28;20366;-56
2021/04/28 03:20:53;;;;;;;1.13;0.95;;;15.60;47.20;;;;;;4957902;28;20132;-56
2021/04/28 03:23:19;;;;;;;0.87;0.83;;;15.60;47.30;;;;;;4975269;28;20478;-56
2021/04/28 03:25:44;;;;;;;1.48;0.70;;;15.60;47.30;;;;;;4974985;28;20282;-56
2021/04/28 03:28:10;;;;;;;0.82;0.80;;;15.50;70.00;;;;;;4975027;28;20117;-57
2021/04/28 03:30:36;;;;;;;0.65;0.50;;;15.60;70.20;;;;;;4957847;28;20030;-55
2021/04/28 03:33:02;;;;;;;0.82;0.80;;;15.50;70.20;;;;;;4975002;28;20089;-56
2021/04/28 03:35:28;;;;;;;1.40;1.15;;;15.60;47.30;;;;;;4974986;28;20109;-55
2021/04/28 03:37:53;;;;;;;1.00;0.90;;;15.30;47.20;;;;;;4974928;28;20026;-56
2021/04/28 03:40:19;;;;;;;1.48;0.82;;;15.60;70.50;;;;;;4974739;28;20019;-56
2021/04/28 03:42:45;;;;;;;1.00;0.85;;;15.60;70.10;;;;;;4974712;28;20050;-56
2021/04/28 03:45:11;;;;;;;1.27;1.10;;;15.60;47.40;;;;;;4974684;28;20025;-56
2021/04/28 03:47:37;;;;;;;1.17;1.00;;;;;;;;;;4974727;28;20378;-57
2021/04/28 03:50:04;;;;;;;1.58;0.63;;;15.50;46.70;;;;;;4975039;28;20061;-56
2021/04/28 03:52:30;;;;;;;1.38;0.95;;;15.50;70.50;;;;;;4974788;28;20034;-55
2021/04/28 03:54:56;;;;;;;1.98;0.82;;;15.50;47.30;;;;;;4974487;28;20438;-55
2021/04/28 03:57:21;;;;;;;2.28;1.02;;;15.60;71.20;;;;;;4974931;28;20506;-55
2021/04/28 03:59:47;;;;;;;2.40;0.77;;;15.50;70.60;;;;;;4974606;28;20089;-56
2021/04/28 04:02:12;;;;;;;1.55;1.00;;;15.50;47.30;;;;;;4974581;28;20135;-56
2021/04/28 04:04:38;;;;;;;1.40;0.80;;;15.50;47.40;;;;;;4974205;28;20404;-55
2021/04/28 04:07:04;;;;;;;0.90;0.70;;;15.50;70.30;;;;;;4974409;28;20038;-56
2021/04/28 04:09:29;;;;;;;2.55;0.77;;;15.50;47.40;;;;;;4974456;28;20018;-56
2021/04/28 04:11:55;;;;;;;2.03;1.00;;;15.50;47.40;;;;;;4974404;28;20030;-57
2021/04/28 04:14:20;;;;;;;0.80;0.80;;;15.50;70.40;;;;;;4974296;28;20037;-56
2021/04/28 04:16:46;;;;;;;1.48;1.05;;;15.30;70.80;;;;;;4974368;28;20023;-56
2021/04/28 04:19:12;;;;;;;1.25;0.90;;;15.50;70.50;;;;;;4974529;28;20023;-56
2021/04/28 04:21:39;;;;;;;1.27;0.80;;;15.30;71.30;;;;;;4974442;28;20087;-54
2021/04/28 04:24:05;;;;;;;1.00;0.90;;;15.30;70.30;;;;;;4974282;28;20053;-55
2021/04/28 04:26:31;;;;;;;1.08;0.90;;;15.40;47.30;;;;;;4974268;28;20387;-56
2021/04/28 04:28:56;;;;;;;1.05;0.80;;;15.40;70.70;;;;;;4956698;28;20026;-56
2021/04/28 04:31:22;;;;;;;2.15;1.00;;;15.40;70.60;;;;;;4974079;28;20117;-56
2021/04/28 04:33:49;;;;;;;1.30;0.80;;;15.40;70.30;;;;;;4974353;28;20421;-56
2021/04/28 04:36:14;;;;;;;0.95;0.90;;;15.50;70.70;;;;;;4973679;28;20449;-56
2021/04/28 04:38:40;;;;;;;1.15;1.00;;;15.50;70.80;;;;;;4956668;28;20115;-56
2021/04/28 04:41:05;;;;;;;1.63;0.88;;;15.40;47.30;;;;;;4974067;28;20023;-56
2021/04/28 04:43:31;;;;;;;0.95;0.90;;;15.40;70.80;;;;;;4973967;28;20030;-57
2021/04/28 04:45:57;;;;;;;2.88;1.17;;;15.40;47.30;;;;;;4973881;28;20093;-55
2021/04/28 04:48:22;;;;;;;1.13;0.80;;;15.40;70.70;;;;;;4973970;28;20027;-56
2021/04/28 04:50:48;;;;;;;1.88;1.08;;;15.40;47.40;;;;;;4973934;28;20487;-55
2021/04/28 04:53:13;;;;;;;1.48;0.80;;;15.40;47.40;;;;;;4973992;28;20027;-57
2021/04/28 04:55:39;;;;;;;3.67;1.35;;;15.40;47.40;;;;;;4974030;28;20014;-56
2021/04/28 04:58:05;;;;;;;1.02;0.80;;;15.40;70.50;;;;;;4974151;28;20019;-54
2021/04/28 05:00:31;;;;;;;1.42;1.17;;;15.40;70.70;;;;;;4973953;28;20128;-54
2021/04/28 05:02:56;;;;;;;1.20;0.68;;;15.40;70.90;;;;;;4973806;28;20031;-53
2021/04/28 05:05:22;;;;;;;1.10;0.90;;;15.50;71.00;;;;;;4956353;28;20071;-53
2021/04/28 05:07:48;;;;;;;1.45;0.90;;;15.40;71.00;;;;;;4973947;28;20042;-54
2021/04/28 05:10:13;;;;;;;1.10;0.90;;;15.20;71.10;;;;;;4956495;28;20035;-56
2021/04/28 05:12:40;;;;;;;6.03;1.10;;;15.30;71.20;;;;;;4973711;28;20027;-56
2021/04/28 05:15:08;;;;;;;2.17;1.40;;;15.20;47.40;;;;;;4973624;28;20027;-55
2021/04/28 05:17:33;;;;;;;1.23;1.02;;;15.20;71.10;;;;;;4973500;28;20046;-52
2021/04/28 05:19:59;;;;;;;1.65;1.30;;;15.30;47.80;;;;;;4973601;28;20026;-52
2021/04/28 05:22:26;;;;;;;4.13;1.10;;;15.40;70.90;;;;;;4973641;28;20371;-54
2021/04/28 05:24:53;;;;;;;3.17;1.60;;;15.30;47.60;;;;;;4973823;28;20026;-51
2021/04/28 05:27:18;;;;;;;2.22;1.42;;;15.30;47.60;;;;;;4973361;28;20034;-54
2021/04/28 05:29:44;;;;;;;1.60;1.00;;;15.30;70.80;;;;;;4973767;28;20027;-54
2021/04/28 05:32:10;;;;;;;2.05;1.20;;;15.30;70.80;;;;;;4973484;28;20557;-54
2021/04/28 05:34:36;;;;;;;2.78;1.50;;;15.30;70.80;;;;;;4973747;28;20023;-54
2021/04/28 05:37:04;;;;;;;2.83;1.48;;;15.40;47.70;;;;;;4973545;28;20086;-52
2021/04/28 05:39:30;;;;;;;2.17;1.73;;;15.30;70.50;;;;;;4973485;28;20031;-53
2021/04/28 05:41:56;;;;;;;2.17;1.48;;;15.30;47.70;;;;;;4956155;28;20038;-51
2021/04/28 05:44:22;;;;;;;4.78;1.83;;;15.30;47.70;;;;;;4956358;28;20022;-51
2021/04/28 05:46:48;;;;;;;3.05;1.60;;;15.30;70.70;;;;;;4973343;28;20035;-50
2021/04/28 05:49:14;;;;;;;3.10;1.30;;;15.30;47.70;;;;;;4976888;28;20014;-51
2021/04/28 05:51:41;;;;;;;2.38;1.52;;;15.30;47.70;;;;;;4976804;28;20109;-51
2021/04/28 05:54:07;;;;;;;2.38;1.67;;;15.40;47.80;;;;;;4959321;28;20023;-52
2021/04/28 05:56:32;;;;;;;2.70;1.27;;;15.30;47.80;;;;;;4968631;28;20117;-53
2021/04/28 05:58:58;;;;;;;4.35;1.67;;;15.30;47.70;;;;;;4976794;28;20030;-51
2021/04/28 06:01:24;;;;;;;3.28;1.50;;;15.40;48.20;;;;;;4976813;28;20500;-51
2021/04/28 06:03:49;;;;;;;2.55;1.48;;;15.30;48.20;;;;;;4976556;28;20141;-54
2021/04/28 06:06:15;;;;;;;4.05;1.30;;;15.30;71.40;;;;;;4959333;28;20081;-52
2021/04/28 06:08:41;;;;;;;2.55;1.50;;;15.30;48.40;;;;;;4976456;28;20015;-53
2021/04/28 06:11:06;;;;;;;2.15;1.35;;;15.40;71.40;;;;;;4976563;28;20082;-53
2021/04/28 06:13:32;;;;;;;2.63;1.60;;;15.30;48.50;;;;;;4976889;28;20377;-52
2021/04/28 06:15:58;;;;;;;3.20;1.52;;;15.80;71.90;;;;;;4976620;28;20054;-57
2021/04/28 06:18:24;;;;;;;1.58;1.45;;;15.30;48.30;;;;;;4976656;28;20110;-57
2021/04/28 06:20:49;;;;;;;4.32;1.50;;;15.20;72.20;;;;;;4959166;28;20062;-57
2021/04/28 06:23:16;;;;;;;2.95;1.92;;;15.40;48.50;;;;;;4976364;28;20037;-55
2021/04/28 06:25:42;;;;;;;3.60;1.50;;;15.40;72.00;;;;;;4976218;28;20054;-54
2021/04/28 06:28:08;;;;;;;4.25;1.48;;;15.40;49.10;;;;;;4976002;28;20050;-54
2021/04/28 06:30:34;;;;;;;4.53;1.60;;;15.40;72.10;;;;;;4975251;28;20018;-55
2021/04/28 06:33:00;;;;;;;3.03;1.60;;;15.60;71.80;;;;;;4974617;28;20066;-54
2021/04/28 06:35:25;;;;;;;5.40;1.45;;;15.50;48.70;;;;;;4957368;28;20154;-54
2021/04/28 06:37:51;;;;;;;2.70;1.30;;;15.40;71.20;;;;;;4974284;28;20023;-55
2021/04/28 06:40:17;;;;;;;6.50;1.48;;;15.50;71.40;;;;;;4974194;28;20470;-55
2021/04/28 06:42:43;;;;;;;5.20;2.15;;;15.70;71.70;;;;;;4974978;28;20418;-54
2021/04/28 06:45:09;;;;;;;1.40;1.20;;;15.60;71.50;;;;;;4975131;28;20026;-55
2021/04/28 06:47:35;;;;;;;6.22;1.88;;;16.00;71.50;;;;;;4975886;28;20034;-55
2021/04/28 06:50:01;;;;;;;4.68;1.65;;;15.60;71.40;;;;;;4975946;28;20034;-55
2021/04/28 06:52:27;;;;;;;3.72;1.58;;;15.60;71.10;;;;;;4976167;28;20355;-54
2021/04/28 06:54:52;;;;;;;2.60;1.15;;;15.80;47.90;;;;;;4975563;28;20078;-55
2021/04/28 06:57:18;;;;;;;2.58;1.27;;;15.70;71.00;;;;;;4975726;28;20103;-55
2021/04/28 06:59:44;;;;;;;2.08;1.33;;;15.70;47.70;;;;;;4975161;28;20025;-53
2021/04/28 07:02:09;;;;;;;2.75;1.40;;;15.90;70.50;;;;;;4975961;28;20031;-55
2021/04/28 07:04:35;;;;;;;2.38;1.02;;;15.70;47.70;;;;;;4975603;28;20042;-55
2021/04/28 07:07:01;;;;;;;1.77;0.95;;;15.90;72.00;;;;;;4975550;28;20038;-54
2021/04/28 07:09:26;;;;;;;1.63;1.20;;;15.80;47.60;;;;;;4975880;28;20030;-54
2021/04/28 07:11:52;;;;;;;1.20;0.95;;;15.70;70.30;;;;;;4975590;28;20393;-56
2021/04/28 07:14:18;;;;;;;2.65;1.30;;;15.80;47.70;;;;;;4975370;28;20377;-56
2021/04/28 07:16:44;;;;;;;4.68;1.45;;;15.70;70.40;;;;;;4957982;28;20543;-56
2021/04/28 07:19:10;;;;;;;2.63;1.33;;;15.80;47.40;;;;;;4975305;28;20029;-55
2021/04/28 07:21:36;;;;;;;1.23;0.98;;;15.90;69.90;;;;;;4975457;28;20043;-56
2021/04/28 07:24:02;;;;;;;2.58;1.27;;;15.90;47.30;;;;;;4975276;28;20066;-55
2021/04/28 07:26:28;;;;;;;1.35;1.20;;;16.00;47.30;;;;;;4975384;28;20041;-55
2021/04/28 07:28:54;;;;;;;2.58;1.50;;;16.10;47.30;;;;;;4975206;28;20034;-55
2021/04/28 07:31:20;;;;;;;1.25;0.90;;;15.70;47.00;;;;;;4975139;28;20034;-54
2021/04/28 07:33:46;;;;;;;1.90;1.40;;;16.00;69.70;;;;;;4957626;28;20019;-54
2021/04/28 07:36:12;;;;;;;1.98;1.10;;;16.10;69.40;;;;;;4957534;28;20030;-54
2021/04/28 07:38:38;;;;;;;3.90;1.08;;;16.20;69.50;;;;;;4975225;28;20031;-55
2021/04/28 07:41:04;;;;;;;3.50;1.70;;;15.80;69.00;;;;;;4974910;28;20023;-55
2021/04/28 07:43:30;;;;;;;1.35;1.15;;;16.00;47.00;;;;;;4957391;28;20474;-55
2021/04/28 07:45:56;;;;;;;4.00;1.35;;;16.10;47.00;;;;;;4974505;28;20026;-57
2021/04/28 07:48:21;;;;;;;2.58;1.02;;;16.10;47.10;;;;;;4974819;28;20270;-57
2021/04/28 07:50:47;;;;;;;1.67;1.20;;;16.10;47.30;;;;;;4974668;28;20023;-55
2021/04/28 07:53:13;;;;;;;2.42;1.20;;;16.40;69.70;;;;;;4974856;28;20027;-57
2021/04/28 07:55:38;;;;;;;3.25;1.08;;;16.20;47.70;;;;;;4974666;28;20065;-57
2021/04/28 07:58:05;;;;;;;3.13;1.40;;;16.80;69.80;;;;;;4974424;28;20033;-56
2021/04/28 08:00:31;;;;;;;4.28;1.85;;;16.40;48.00;;;;;;4974945;28;20382;-57
2021/04/28 08:02:57;;;;;;;2.55;1.10;;;;;;;;;;4974854;28;20046;-57
2021/04/28 08:05:23;;;;;;;1.75;1.20;;;;;;;;;;4974188;28;20490;-57
2021/04/28 08:07:49;;;;;;;3.30;0.95;;;16.60;47.80;;;;;;4956825;28;20042;-56
2021/04/28 08:10:16;;;;;;;1.95;1.23;;;16.80;70.20;;;;;;4973648;28;20478;-57
2021/04/28 08:12:41;;;;;;;1.42;1.10;;;16.80;48.50;;;;;;4974243;28;20506;-57
2021/04/28 08:15:08;;;;;;;4.72;1.10;;;16.90;48.10;;;;;;4974146;28;20041;-57
2021/04/28 08:17:35;;;;;;;2.85;1.20;;;16.90;47.90;;;;;;4974267;28;20102;-57
2021/04/28 08:20:01;;;;;;;4.72;1.58;;;17.00;48.50;;;;;;4974546;28;20023;-57
2021/04/28 08:22:27;;;;;;;4.30;1.10;;;17.10;48.00;;;;;;4974216;28;20038;-58
2021/04/28 08:24:54;;;;;;;2.13;1.00;;;17.10;47.70;;;;;;4974062;28;20554;-55
2021/04/28 08:27:21;;;;;;;1.98;1.10;;;17.20;47.90;;;;;;4973749;28;20083;-57
2021/04/28 08:29:47;;;;;;;1.65;0.90;;;17.40;69.90;;;;;;4973843;28;20023;-58
2021/04/28 08:32:13;;;;;;;1.50;0.80;;;17.30;68.80;;;;;;4974088;28;20027;-57
2021/04/28 08:34:38;;;;;;;3.15;1.23;;;17.30;47.50;;;;;;4973871;28;20109;-57
2021/04/28 08:37:04;;;;;;;2.58;1.40;;;17.50;47.50;;;;;;4974275;28;20022;-57
2021/04/28 08:39:29;;;;;;;1.20;0.90;;;17.60;47.00;;;;;;4974249;28;20458;-56
2021/04/28 08:41:55;;;;;;;2.05;0.95;;;17.60;46.90;;;;;;4974026;28;20041;-57
2021/04/28 08:44:21;;;;;;;4.63;0.90;;;17.60;46.70;;;;;;4973921;28;20019;-57
2021/04/28 08:46:47;;;;;;;1.48;1.10;;;17.70;47.20;;;;;;4973772;28;20043;-55
2021/04/28 08:49:13;;;;;;;0.90;0.63;;;17.70;47.20;;;;;;4973663;28;20521;-56
2021/04/28 08:51:39;;;;;;;2.05;0.90;;;17.80;47.60;;;;;;4956579;28;20122;-53
2021/04/28 08:54:06;;;;;;;2.30;1.00;;;17.60;47.70;;;;;;4973779;28;20027;-55
2021/04/28 08:56:32;;;;;;;3.10;0.93;;;17.80;68.40;;;;;;4956450;28;20061;-54
2021/04/28 08:58:58;;;;;;;4.55;1.00;;;;;;;;;;4956441;28;20022;-55
2021/04/28 09:01:35;;;;;;;1.83;0.98;;;18.50;47.40;;;;;;4973724;28;20031;-56
2021/04/28 09:04:02;;;;;;;1.65;0.80;;;17.90;46.60;;;;;;4973657;28;20134;-56
2021/04/28 09:06:35;;;;;;;3.92;1.10;;;17.90;46.20;;;;;;4973867;28;20066;-56
2021/04/28 09:09:20;;;;;;;1.52;0.95;;;17.90;46.60;;;;;;4974052;28;20110;-55
2021/04/28 09:11:51;;;;;;;3.70;1.10;;;17.80;46.50;;;;;;4973570;28;20498;-56
2021/04/28 09:14:24;;;;;;;7.38;1.20;;;18.00;46.80;;;;;;4973740;28;20038;-57
2021/04/28 09:16:52;;;;;;;1.98;1.00;;;18.40;46.80;;;;;;4973836;28;20082;-56
2021/04/28 09:19:37;;;;;;;1.60;1.05;;;17.90;67.90;;;;;;4973513;28;20501;-55
2021/04/28 09:22:06;;;;;;;1.83;1.00;;;18.00;46.80;;;;;;4975303;28;20027;-56
2021/04/28 09:24:34;;;;;;;2.97;0.95;;;18.00;47.00;;;;;;4960052;28;20027;-56
2021/04/28 09:27:04;;;;;;;2.47;1.35;;;18.10;46.60;;;;;;4977475;28;20122;-52
2021/04/28 09:29:35;;;;;;;2.72;1.20;;;18.50;46.70;;;;;;4977490;28;20466;-55
2021/04/28 09:32:05;;;;;;;1.65;1.05;;;18.10;46.70;;;;;;4977265;28;20027;-56
2021/04/28 09:34:35;;;;;;;2.05;1.20;;;18.10;46.20;;;;;;4977421;28;20026;-55
2021/04/28 09:37:16;;;;;;;2.60;1.10;;;18.20;68.30;;;;;;4977149;28;20030;-52
2021/04/28 09:39:43;;;;;;;;;;;18.20;46.60;;;;;;4977883;28;20022;-56
2021/04/28 09:42:13;;;;;;;1.83;0.93;;;18.20;47.00;;;;;;4977012;28;19912;-55
2021/04/28 09:44:44;;;;;;;1.77;1.23;;;18.20;46.60;;;;;;4977190;28;20031;-55
2021/04/28 09:47:15;;;;;;;1.48;1.13;;;18.30;46.80;;;;;;4976941;28;20445;-55
2021/04/28 09:50:03;;;;;;;1.45;0.93;;;18.30;46.90;;;;;;4959976;28;20026;-56
2021/04/28 09:52:29;;;;;;;1.67;1.02;;;18.30;46.40;;;;;;4977134;28;20033;-56
2021/04/28 09:54:58;;;;;;;1.38;0.80;;;18.30;68.00;;;;;;4977083;28;20110;-55
2021/04/28 09:57:41;;;;;;;1.63;1.15;;;18.30;68.70;;;;;;4977056;28;20030;-56
2021/04/28 10:00:22;;;;;;;1.00;0.90;;;18.30;47.00;;;;;;4977043;28;20385;-54
2021/04/28 10:02:56;;;;;;;2.22;0.80;;;18.30;47.20;;;;;;4976589;28;20389;-55
2021/04/28 10:05:30;;;;;;;3.08;1.17;;;18.40;46.60;;;;;;4976558;28;20045;-55
2021/04/28 10:08:07;;;;;;;4.15;0.93;;;18.50;46.50;;;;;;4976909;28;20034;-55
2021/04/28 10:10:33;;;;;;;3.15;0.95;;;18.50;68.00;;;;;;4976716;28;20489;-55
2021/04/28 10:12:59;;;;;;;1.05;0.93;;;18.50;46.40;;;;;;4959501;28;20065;-56
2021/04/28 10:15:25;;;;;;;1.77;0.98;;;18.70;67.50;;;;;;4976571;28;20462;-55
2021/04/28 10:17:52;;;;;;;0.90;0.60;;;18.60;46.30;;;;;;4976517;28;20030;-55
2021/04/28 10:20:20;;;;;;;3.90;1.40;;;18.80;45.90;;;;;;4976415;28;20105;-56
2021/04/28 10:22:47;;;;;;;1.48;0.88;;;18.80;67.40;;;;;;4976377;28;20356;-55
2021/04/28 10:25:14;;;;;;;1.33;1.00;;;18.60;46.20;;;;;;4959259;28;20034;-55
2021/04/28 10:27:41;;;;;;;1.83;0.90;;;18.80;45.60;;;;;;4976281;28;20111;-55
2021/04/28 10:30:08;;;;;;;2.47;1.25;;;18.80;45.20;;;;;;4976325;28;20023;-55
2021/04/28 10:32:37;;;;;;;2.78;1.48;;;18.80;65.60;;;;;;4975979;28;20086;-56
2021/04/28 10:35:12;;;;;;;1.45;0.82;;;18.70;44.70;;;;;;4958053;28;20030;-55
2021/04/28 10:37:41;;;;;;;1.77;1.00;;;19.00;44.70;;;;;;4976054;28;20089;-56
2021/04/28 10:40:10;;;;;;;2.15;1.27;;;19.10;65.50;;;;;;4976296;28;20019;-56
2021/04/28 10:42:37;;;;;;;1.85;0.95;;;19.00;45.10;;;;;;4975874;28;20469;-56
2021/04/28 10:45:04;;;;;;;2.45;0.95;;;19.10;44.40;;;;;;4976210;28;20078;-60
2021/04/28 10:47:43;;;;;;;1.60;1.02;;;19.10;44.40;;;;;;4975770;28;20405;-60
2021/04/28 10:50:23;;;;;;;3.33;1.30;;;19.10;44.20;;;;;;4975786;28;20110;-56
2021/04/28 10:52:53;;;;;;;2.67;1.30;;;19.10;43.60;;;;;;4975742;28;20109;-56
2021/04/28 10:56:12;;;;;;;1.80;1.00;;;19.20;44.30;;;;;;4975590;28;20027;-54
2021/04/28 10:58:47;;;;;;;1.70;1.17;;;19.20;44.00;;;;;;4952113;28;20043;-55
2021/04/28 11:01:19;;;;;;;3.08;0.90;;;19.40;64.60;;;;;;4975698;28;20023;-56
2021/04/28 11:03:50;;;;;;;3.92;1.10;;;19.30;43.80;;;;;;4975331;28;20098;-56
2021/04/28 11:09:07;;;;;;;2.55;1.20;;;19.40;43.70;;;;;;4975453;28;20120;-56
2021/04/28 11:11:37;;;;;;;1.50;1.02;;;19.60;66.30;;;;;;4961204;28;20023;-55
2021/04/28 11:14:09;;;;;;;2.13;1.05;;;19.50;44.60;;;;;;4958046;28;20026;-55
2021/04/28 11:16:41;;;;;;;1.40;1.00;;;19.30;65.40;;;;;;4975542;28;20034;-57
2021/04/28 11:19:14;;;;;;;6.72;1.40;;;19.50;45.10;;;;;;4975643;28;20030;-56
2021/04/28 11:21:40;;;;;;;4.78;1.00;;;19.50;45.20;;;;;;4975552;28;20027;-52
2021/04/28 11:24:09;;;;;;;2.85;0.90;;;19.60;65.20;;;;;;4975180;28;20034;-55
2021/04/28 11:26:37;;;;;;;2.25;1.08;;;19.50;44.30;;;;;;4958310;28;20497;-54
2021/04/28 11:29:04;;;;;;;1.73;0.90;;;19.40;64.60;;;;;;4975474;28;20078;-56
2021/04/28 11:31:53;;;;;;;3.60;1.02;;;19.60;43.90;;;;;;4957742;28;20050;-56
2021/04/28 11:34:19;;;;;;;2.65;1.00;;;18.40;64.90;;;;;;4975154;28;20023;-57
2021/04/28 11:36:51;;;;;;;2.65;0.98;;;19.40;43.60;;;;;;4974891;28;20027;-56
2021/04/28 11:39:33;;;;;;;1.92;0.95;;;19.50;43.70;;;;;;4974965;28;20027;-55
2021/04/28 11:42:10;;;;;;;3.33;0.90;;;19.50;43.70;;;;;;4974814;28;20023;-56
2021/04/28 11:44:39;;;;;;;2.58;0.98;;;19.50;43.70;;;;;;4974464;28;20031;-56
2021/04/28 11:47:10;;;;;;;1.48;0.88;;;19.40;43.80;;;;;;4974280;28;20031;-54
2021/04/28 11:49:48;;;;;;;1.67;0.65;;;19.40;43.80;;;;;;4974875;28;20061;-55
2021/04/28 11:52:15;;;;;;;1.63;0.63;;;19.40;64.80;;;;;;4957389;28;20129;-56
2021/04/28 11:54:42;;;;;;;3.42;0.82;;;19.40;43.90;;;;;;4975160;28;20053;-56
2021/04/28 11:57:08;;;;;;;1.13;0.75;;;19.40;43.90;;;;;;4957475;28;20029;-56
2021/04/28 11:59:36;;;;;;;1.77;1.10;;;19.40;43.90;;;;;;4974943;28;20023;-55
2021/04/28 12:02:09;;;;;;;1.50;1.08;;;19.30;43.80;;;;;;4974670;28;20023;-56
2021/04/28 12:04:41;;;;;;;1.63;0.90;;;19.30;43.80;;;;;;4974536;28;20039;-56
2021/04/28 12:07:10;;;;;;;2.15;1.10;;;19.30;43.80;;;;;;4974729;28;20042;-55
2021/04/28 12:09:41;;;;;;;0.90;0.60;;;19.30;43.80;;;;;;4974404;28;20026;-56
2021/04/28 12:12:30;;;;;;;1.27;1.00;;;19.30;43.80;;;;;;4974493;28;20031;-56
2021/04/28 12:15:05;;;;;;;1.95;1.00;;;19.30;43.80;;;;;;4957086;28;20146;-56
2021/04/28 12:17:32;;;;;;;2.60;1.15;;;19.30;65.20;;;;;;4973862;28;20027;-55
2021/04/28 12:19:58;;;;;;;1.80;1.00;;;19.30;43.90;;;;;;4973950;28;20493;-56
2021/04/28 12:22:26;;;;;;;1.92;0.90;;;19.20;43.90;;;;;;4973982;28;20027;-56
2021/04/28 12:24:54;;;;;;;1.30;0.73;;;19.20;65.40;;;;;;4974065;28;20019;-56
2021/04/28 12:27:21;;;;;;;1.33;0.93;;;19.00;43.90;;;;;;4974059;28;20031;-55
2021/04/28 12:29:55;;;;;;;1.63;1.10;;;19.20;44.10;;;;;;4940745;28;20133;-55
2021/04/28 12:32:23;;;;;;;1.38;0.75;;;19.10;44.20;;;;;;4974251;28;20521;-56
2021/04/28 12:35:04;;;;;;;1.15;0.65;;;19.10;44.30;;;;;;4973895;28;20030;-56
2021/04/28 12:37:30;;;;;;;1.73;1.00;;;19.10;44.40;;;;;;4956870;28;20069;-55
2021/04/28 12:39:59;;;;;;;3.40;1.23;;;19.10;44.30;;;;;;4973870;28;20477;-56
2021/04/28 12:42:33;;;;;;;1.15;0.88;;;19.00;44.40;;;;;;4956425;28;20022;-56
2021/04/28 12:45:08;;;;;;;1.45;0.90;;;19.00;44.40;;;;;;4974018;28;20034;-56
2021/04/28 12:47:34;;;;;;;0.90;0.90;;;19.00;44.40;;;;;;4973885;28;20481;-56
2021/04/28 12:50:19;;;;;;;2.03;0.85;;;19.00;44.40;;;;;;4973785;28;20034;-56
2021/04/28 12:52:46;;;;;;;3.05;1.25;;;18.90;44.30;;;;;;4974113;28;20093;-56
2021/04/28 12:55:29;;;;;;;1.58;1.00;;;18.90;44.20;;;;;;4956545;28;20151;-56